sensor_id;sensor_type;location;lat;lon;timestamp;temperature;humidity
12771;DHT22;6449;47.666;9.160;2022-10-16T00:01:18;12.90;99.90
12771;DHT22;6449;47.666;9.160;2022-10-16T00:06:14;12.70;99.90
12771;DHT22;6449;47.666;9.160;2022-10-16T00:11:10;12.60;99.90
12771;DHT22;6449;47.666;9.160;2022-10-16T00:16:07;12.70;99.90
12771;DHT22;6449;47.666;9.160;2022-10-16T00:21:06;12.80;99.90
12771;DHT22;6449;47.666;9.160;2022-10-16T00:26:04;12.90;99.90
12771;DHT22;6449;47.666;9.160;2022-10-16T00:30:58;12.90;99.90
12771;DHT22;6449;47.666;9.160;2022-10-16T00:35:53;12.90;99.90
12771;DHT22;6449;47.666;9.160;2022-10-16T00:40:46;12.90;99.90
12771;DHT22;6449;47.666;9.160;2022-10-16T00:45:40;13.00;99.90
12771;DHT22;6449;47.666;9.160;2022-10-16T00:50:34;13.00;99.90
12771;DHT22;6449;47.666;9.160;2022-10-16T00:55:29;12.80;99.90
12771;DHT22;6449;47.666;9.160;2022-10-16T01:00:25;12.70;99.90
12771;DHT22;6449;47.666;9.160;2022-10-16T01:05:20;12.80;99.90
12771;DHT22;6449;47.666;9.160;2022-10-16T01:10:24;12.70;99.90
12771;DHT22;6449;47.666;9.160;2022-10-16T01:15:29;12.80;99.90
12771;DHT22;6449;47.666;9.160;2022-10-16T01:20:29;12.80;99.90
12771;DHT22;6449;47.666;9.160;2022-10-16T01:25:32;12.80;99.90
12771;DHT22;6449;47.666;9.160;2022-10-16T01:30:42;12.80;99.90
12771;DHT22;6449;47.666;9.160;2022-10-16T01:35:40;12.80;99.90
12771;DHT22;6449;47.666;9.160;2022-10-16T01:40:39;12.80;99.90
12771;DHT22;6449;47.666;9.160;2022-10-16T01:45:37;12.80;99.90
12771;DHT22;6449;47.666;9.160;2022-10-16T01:50:33;12.90;99.90
12771;DHT22;6449;47.666;9.160;2022-10-16T01:55:33;12.80;99.90
12771;DHT22;6449;47.666;9.160;2022-10-16T02:00:31;12.80;99.90
12771;DHT22;6449;47.666;9.160;2022-10-16T02:05:27;12.90;99.90
12771;DHT22;6449;47.666;9.160;2022-10-16T02:10:25;12.90;99.90
12771;DHT22;6449;47.666;9.160;2022-10-16T02:15:23;12.90;99.90
12771;DHT22;6449;47.666;9.160;2022-10-16T02:20:16;12.90;99.90
12771;DHT22;6449;47.666;9.160;2022-10-16T02:25:17;12.90;99.90
12771;DHT22;6449;47.666;9.160;2022-10-16T02:30:21;12.80;99.90
12771;DHT22;6449;47.666;9.160;2022-10-16T02:35:19;12.80;99.90
12771;DHT22;6449;47.666;9.160;2022-10-16T02:40:15;12.80;99.90
12771;DHT22;6449;47.666;9.160;2022-10-16T02:45:15;12.90;99.90
12771;DHT22;6449;47.666;9.160;2022-10-16T02:50:09;12.70;99.90
12771;DHT22;6449;47.666;9.160;2022-10-16T02:55:04;12.90;99.90
12771;DHT22;6449;47.666;9.160;2022-10-16T02:59:58;12.80;99.90
12771;DHT22;6449;47.666;9.160;2022-10-16T03:04:51;12.90;99.90
12771;DHT22;6449;47.666;9.160;2022-10-16T03:09:45;13.00;99.90
12771;DHT22;6449;47.666;9.160;2022-10-16T03:14:39;12.80;99.90
12771;DHT22;6449;47.666;9.160;2022-10-16T03:19:32;12.80;99.90
12771;DHT22;6449;47.666;9.160;2022-10-16T03:24:26;12.80;99.90
12771;DHT22;6449;47.666;9.160;2022-10-16T03:29:21;12.90;99.90
12771;DHT22;6449;47.666;9.160;2022-10-16T03:34:14;12.90;99.90
12771;DHT22;6449;47.666;9.160;2022-10-16T03:39:07;12.90;99.90
12771;DHT22;6449;47.666;9.160;2022-10-16T03:44:00;12.80;99.90
12771;DHT22;6449;47.666;9.160;2022-10-16T03:48:55;12.90;99.90
12771;DHT22;6449;47.666;9.160;2022-10-16T03:53:48;12.90;99.90
12771;DHT22;6449;47.666;9.160;2022-10-16T03:58:42;12.90;99.90
12771;DHT22;6449;47.666;9.160;2022-10-16T04:03:35;12.90;99.90
12771;DHT22;6449;47.666;9.160;2022-10-16T04:08:30;13.00;99.90
12771;DHT22;6449;47.666;9.160;2022-10-16T04:13:25;13.00;99.90
12771;DHT22;6449;47.666;9.160;2022-10-16T04:18:19;13.10;99.90
12771;DHT22;6449;47.666;9.160;2022-10-16T04:23:12;13.10;99.90
12771;DHT22;6449;47.666;9.160;2022-10-16T04:28:07;13.00;99.90
12771;DHT22;6449;47.666;9.160;2022-10-16T04:33:00;13.10;99.90
12771;DHT22;6449;47.666;9.160;2022-10-16T04:37:53;13.10;99.90
12771;DHT22;6449;47.666;9.160;2022-10-16T04:42:46;13.10;99.90
12771;DHT22;6449;47.666;9.160;2022-10-16T04:47:41;13.10;99.90
12771;DHT22;6449;47.666;9.160;2022-10-16T04:52:34;13.10;99.90
12771;DHT22;6449;47.666;9.160;2022-10-16T04:57:28;13.10;99.90
12771;DHT22;6449;47.666;9.160;2022-10-16T05:02:21;13.20;99.90
12771;DHT22;6449;47.666;9.160;2022-10-16T05:07:16;13.20;99.90
12771;DHT22;6449;47.666;9.160;2022-10-16T05:12:10;13.20;99.90
12771;DHT22;6449;47.666;9.160;2022-10-16T05:17:03;13.20;99.90
12771;DHT22;6449;47.666;9.160;2022-10-16T05:21:56;13.20;99.90
12771;DHT22;6449;47.666;9.160;2022-10-16T05:26:51;13.20;99.90
12771;DHT22;6449;47.666;9.160;2022-10-16T05:31:44;13.20;99.90
12771;DHT22;6449;47.666;9.160;2022-10-16T05:36:38;13.10;99.90
12771;DHT22;6449;47.666;9.160;2022-10-16T05:41:31;13.20;99.90
12771;DHT22;6449;47.666;9.160;2022-10-16T05:46:26;13.20;99.90
12771;DHT22;6449;47.666;9.160;2022-10-16T05:51:19;13.10;99.90
12771;DHT22;6449;47.666;9.160;2022-10-16T05:56:13;13.10;99.90
12771;DHT22;6449;47.666;9.160;2022-10-16T06:01:09;13.10;99.90
12771;DHT22;6449;47.666;9.160;2022-10-16T06:06:12;13.10;99.90
12771;DHT22;6449;47.666;9.160;2022-10-16T06:11:08;13.10;99.90
12771;DHT22;6449;47.666;9.160;2022-10-16T06:16:04;13.10;99.90
12771;DHT22;6449;47.666;9.160;2022-10-16T06:20:58;13.20;99.90
12771;DHT22;6449;47.666;9.160;2022-10-16T06:25:53;13.20;99.90
12771;DHT22;6449;47.666;9.160;2022-10-16T06:30:46;13.30;99.90
12771;DHT22;6449;47.666;9.160;2022-10-16T06:35:39;13.30;99.90
12771;DHT22;6449;47.666;9.160;2022-10-16T06:40:33;13.30;99.90
12771;DHT22;6449;47.666;9.160;2022-10-16T06:45:28;13.40;99.90
12771;DHT22;6449;47.666;9.160;2022-10-16T06:50:21;13.40;99.90
12771;DHT22;6449;47.666;9.160;2022-10-16T06:55:15;13.40;99.90
12771;DHT22;6449;47.666;9.160;2022-10-16T07:00:09;13.40;99.90
12771;DHT22;6449;47.666;9.160;2022-10-16T07:05:04;13.40;99.90
12771;DHT22;6449;47.666;9.160;2022-10-16T07:09:58;13.40;99.90
12771;DHT22;6449;47.666;9.160;2022-10-16T07:14:51;13.40;99.90
12771;DHT22;6449;47.666;9.160;2022-10-16T07:19:46;13.40;99.90
12771;DHT22;6449;47.666;9.160;2022-10-16T07:24:41;13.30;99.90
12771;DHT22;6449;47.666;9.160;2022-10-16T07:29:39;13.40;99.90
12771;DHT22;6449;47.666;9.160;2022-10-16T07:34:32;13.40;99.90
12771;DHT22;6449;47.666;9.160;2022-10-16T07:39:25;13.40;99.90
12771;DHT22;6449;47.666;9.160;2022-10-16T07:44:20;13.40;99.90
12771;DHT22;6449;47.666;9.160;2022-10-16T07:49:13;13.50;99.90
12771;DHT22;6449;47.666;9.160;2022-10-16T07:54:08;13.60;99.90
12771;DHT22;6449;47.666;9.160;2022-10-16T07:59:01;13.70;99.90
12771;DHT22;6449;47.666;9.160;2022-10-16T08:03:56;13.70;99.90
12771;DHT22;6449;47.666;9.160;2022-10-16T08:08:49;13.70;99.90
12771;DHT22;6449;47.666;9.160;2022-10-16T08:13:43;13.70;99.90
12771;DHT22;6449;47.666;9.160;2022-10-16T08:18:37;13.70;99.90
12771;DHT22;6449;47.666;9.160;2022-10-16T08:23:33;13.90;99.90
12771;DHT22;6449;47.666;9.160;2022-10-16T08:28:27;14.20;99.90
12771;DHT22;6449;47.666;9.160;2022-10-16T08:33:20;14.30;99.90
12771;DHT22;6449;47.666;9.160;2022-10-16T08:38:14;14.30;99.90
12771;DHT22;6449;47.666;9.160;2022-10-16T08:43:26;14.40;99.90
12771;DHT22;6449;47.666;9.160;2022-10-16T08:48:33;14.40;99.90
12771;DHT22;6449;47.666;9.160;2022-10-16T08:53:41;14.40;99.90
12771;DHT22;6449;47.666;9.160;2022-10-16T08:58:38;14.20;99.90
12771;DHT22;6449;47.666;9.160;2022-10-16T09:03:52;14.20;99.90
12771;DHT22;6449;47.666;9.160;2022-10-16T09:09:17;14.40;99.90
12771;DHT22;6449;47.666;9.160;2022-10-16T09:14:35;14.80;99.90
12771;DHT22;6449;47.666;9.160;2022-10-16T09:19:44;15.20;99.90
12771;DHT22;6449;47.666;9.160;2022-10-16T09:24:43;15.10;99.90
12771;DHT22;6449;47.666;9.160;2022-10-16T09:29:37;15.40;99.90
12771;DHT22;6449;47.666;9.160;2022-10-16T09:34:33;15.60;99.90
12771;DHT22;6449;47.666;9.160;2022-10-16T09:39:28;15.60;99.90
12771;DHT22;6449;47.666;9.160;2022-10-16T09:44:24;15.60;99.90
12771;DHT22;6449;47.666;9.160;2022-10-16T09:49:23;15.60;99.90
12771;DHT22;6449;47.666;9.160;2022-10-16T09:54:19;15.80;99.90
12771;DHT22;6449;47.666;9.160;2022-10-16T09:59:15;15.90;99.90
12771;DHT22;6449;47.666;9.160;2022-10-16T10:04:10;16.00;99.90
12771;DHT22;6449;47.666;9.160;2022-10-16T10:09:15;16.20;99.90
12771;DHT22;6449;47.666;9.160;2022-10-16T10:14:18;16.30;99.90
12771;DHT22;6449;47.666;9.160;2022-10-16T10:19:16;16.50;99.90
12771;DHT22;6449;47.666;9.160;2022-10-16T10:24:13;16.60;99.90
12771;DHT22;6449;47.666;9.160;2022-10-16T10:29:14;16.70;99.90
12771;DHT22;6449;47.666;9.160;2022-10-16T10:34:22;16.60;99.90
12771;DHT22;6449;47.666;9.160;2022-10-16T10:39:30;16.70;99.90
12771;DHT22;6449;47.666;9.160;2022-10-16T10:44:57;16.60;99.90
12771;DHT22;6449;47.666;9.160;2022-10-16T10:50:10;16.70;99.90
12771;DHT22;6449;47.666;9.160;2022-10-16T10:55:20;16.70;99.90
12771;DHT22;6449;47.666;9.160;2022-10-16T11:00:21;16.70;99.90
12771;DHT22;6449;47.666;9.160;2022-10-16T11:05:30;16.60;99.90
12771;DHT22;6449;47.666;9.160;2022-10-16T11:10:43;16.60;99.90
12771;DHT22;6449;47.666;9.160;2022-10-16T11:15:42;16.60;99.90
12771;DHT22;6449;47.666;9.160;2022-10-16T11:20:42;16.60;99.90
12771;DHT22;6449;47.666;9.160;2022-10-16T11:25:40;16.70;99.90
12771;DHT22;6449;47.666;9.160;2022-10-16T11:30:41;16.70;99.90
12771;DHT22;6449;47.666;9.160;2022-10-16T11:35:43;16.80;99.90
12771;DHT22;6449;47.666;9.160;2022-10-16T11:40:43;16.80;99.90
12771;DHT22;6449;47.666;9.160;2022-10-16T11:45:44;16.80;99.90
12771;DHT22;6449;47.666;9.160;2022-10-16T11:50:45;16.90;99.90
12771;DHT22;6449;47.666;9.160;2022-10-16T11:55:45;17.00;99.90
12771;DHT22;6449;47.666;9.160;2022-10-16T12:00:42;17.00;99.90
12771;DHT22;6449;47.666;9.160;2022-10-16T12:05:54;17.10;99.90
12771;DHT22;6449;47.666;9.160;2022-10-16T12:11:06;17.20;99.90
12771;DHT22;6449;47.666;9.160;2022-10-16T12:16:21;17.40;99.90
12771;DHT22;6449;47.666;9.160;2022-10-16T12:21:17;17.60;99.90
12771;DHT22;6449;47.666;9.160;2022-10-16T12:26:13;17.70;99.90
12771;DHT22;6449;47.666;9.160;2022-10-16T12:31:07;17.60;99.90
12771;DHT22;6449;47.666;9.160;2022-10-16T12:36:09;17.60;99.90
12771;DHT22;6449;47.666;9.160;2022-10-16T12:41:08;17.70;99.90
12771;DHT22;6449;47.666;9.160;2022-10-16T12:46:19;17.80;99.90
12771;DHT22;6449;47.666;9.160;2022-10-16T12:51:23;17.80;99.90
12771;DHT22;6449;47.666;9.160;2022-10-16T12:56:22;17.90;99.90
12771;DHT22;6449;47.666;9.160;2022-10-16T13:01:32;17.90;99.90
12771;DHT22;6449;47.666;9.160;2022-10-16T13:06:38;18.00;99.90
12771;DHT22;6449;47.666;9.160;2022-10-16T13:17:16;18.10;99.90
12771;DHT22;6449;47.666;9.160;2022-10-16T13:22:23;18.10;99.90
12771;DHT22;6449;47.666;9.160;2022-10-16T13:27:30;18.10;99.90
12771;DHT22;6449;47.666;9.160;2022-10-16T13:32:31;18.00;99.90
12771;DHT22;6449;47.666;9.160;2022-10-16T13:37:24;18.00;99.90
12771;DHT22;6449;47.666;9.160;2022-10-16T13:42:23;18.00;99.90
12771;DHT22;6449;47.666;9.160;2022-10-16T13:47:21;18.10;99.90
12771;DHT22;6449;47.666;9.160;2022-10-16T13:52:19;18.10;99.90
12771;DHT22;6449;47.666;9.160;2022-10-16T13:57:14;18.30;99.90
12771;DHT22;6449;47.666;9.160;2022-10-16T14:02:27;18.20;99.90
12771;DHT22;6449;47.666;9.160;2022-10-16T14:07:29;18.20;99.90
12771;DHT22;6449;47.666;9.160;2022-10-16T14:17:30;18.20;99.90
12771;DHT22;6449;47.666;9.160;2022-10-16T14:22:33;18.20;99.90
12771;DHT22;6449;47.666;9.160;2022-10-16T14:27:33;18.20;99.90
12771;DHT22;6449;47.666;9.160;2022-10-16T14:32:28;18.20;99.90
12771;DHT22;6449;47.666;9.160;2022-10-16T14:37:24;18.20;99.90
12771;DHT22;6449;47.666;9.160;2022-10-16T14:42:22;18.10;99.90
12771;DHT22;6449;47.666;9.160;2022-10-16T14:47:19;18.10;99.90
12771;DHT22;6449;47.666;9.160;2022-10-16T14:52:17;18.10;99.90
12771;DHT22;6449;47.666;9.160;2022-10-16T14:57:17;18.10;99.90
12771;DHT22;6449;47.666;9.160;2022-10-16T15:02:19;18.10;99.90
12771;DHT22;6449;47.666;9.160;2022-10-16T15:07:15;18.10;99.90
12771;DHT22;6449;47.666;9.160;2022-10-16T15:12:09;18.20;99.90
12771;DHT22;6449;47.666;9.160;2022-10-16T15:17:02;18.20;99.90
12771;DHT22;6449;47.666;9.160;2022-10-16T15:21:57;18.20;99.90
12771;DHT22;6449;47.666;9.160;2022-10-16T15:26:50;18.10;99.90
12771;DHT22;6449;47.666;9.160;2022-10-16T15:31:44;18.00;99.90
12771;DHT22;6449;47.666;9.160;2022-10-16T15:36:39;18.00;99.90
12771;DHT22;6449;47.666;9.160;2022-10-16T15:41:34;17.90;99.90
12771;DHT22;6449;47.666;9.160;2022-10-16T15:46:27;17.90;99.90
12771;DHT22;6449;47.666;9.160;2022-10-16T15:51:22;17.80;99.90
12771;DHT22;6449;47.666;9.160;2022-10-16T15:56:16;17.70;99.90
12771;DHT22;6449;47.666;9.160;2022-10-16T16:01:11;17.60;99.90
12771;DHT22;6449;47.666;9.160;2022-10-16T16:06:06;17.40;99.90
12771;DHT22;6449;47.666;9.160;2022-10-16T16:11:02;17.20;99.90
12771;DHT22;6449;47.666;9.160;2022-10-16T16:15:57;17.10;99.90
12771;DHT22;6449;47.666;9.160;2022-10-16T16:20:52;17.00;99.90
12771;DHT22;6449;47.666;9.160;2022-10-16T16:26:03;16.90;99.90
12771;DHT22;6449;47.666;9.160;2022-10-16T16:31:01;16.90;99.90
12771;DHT22;6449;47.666;9.160;2022-10-16T16:36:00;16.70;99.90
12771;DHT22;6449;47.666;9.160;2022-10-16T16:40:54;16.60;99.90
12771;DHT22;6449;47.666;9.160;2022-10-16T16:45:48;16.40;99.90
12771;DHT22;6449;47.666;9.160;2022-10-16T16:50:41;16.30;99.90
12771;DHT22;6449;47.666;9.160;2022-10-16T16:55:36;16.20;99.90
12771;DHT22;6449;47.666;9.160;2022-10-16T17:00:29;16.10;99.90
12771;DHT22;6449;47.666;9.160;2022-10-16T17:05:23;16.00;99.90
12771;DHT22;6449;47.666;9.160;2022-10-16T17:10:17;15.80;99.90
12771;DHT22;6449;47.666;9.160;2022-10-16T17:15:12;15.90;99.90
12771;DHT22;6449;47.666;9.160;2022-10-16T17:20:06;15.90;99.90
12771;DHT22;6449;47.666;9.160;2022-10-16T17:25:02;15.80;99.90
12771;DHT22;6449;47.666;9.160;2022-10-16T17:29:55;15.60;99.90
12771;DHT22;6449;47.666;9.160;2022-10-16T17:34:50;15.50;99.90
12771;DHT22;6449;47.666;9.160;2022-10-16T17:39:43;15.30;99.90
12771;DHT22;6449;47.666;9.160;2022-10-16T17:44:37;15.30;99.90
12771;DHT22;6449;47.666;9.160;2022-10-16T17:49:30;15.20;99.90
12771;DHT22;6449;47.666;9.160;2022-10-16T17:54:25;15.10;99.90
12771;DHT22;6449;47.666;9.160;2022-10-16T17:59:18;15.00;99.90
12771;DHT22;6449;47.666;9.160;2022-10-16T18:04:15;14.90;99.90
12771;DHT22;6449;47.666;9.160;2022-10-16T18:09:11;14.90;99.90
12771;DHT22;6449;47.666;9.160;2022-10-16T18:14:07;14.80;99.90
12771;DHT22;6449;47.666;9.160;2022-10-16T18:19:04;14.70;99.90
12771;DHT22;6449;47.666;9.160;2022-10-16T18:23:58;14.70;99.90
12771;DHT22;6449;47.666;9.160;2022-10-16T18:28:52;14.60;99.90
12771;DHT22;6449;47.666;9.160;2022-10-16T18:33:49;14.60;99.90
12771;DHT22;6449;47.666;9.160;2022-10-16T18:38:42;14.50;99.90
12771;DHT22;6449;47.666;9.160;2022-10-16T18:43:38;14.30;99.90
12771;DHT22;6449;47.666;9.160;2022-10-16T18:48:31;14.30;99.90
12771;DHT22;6449;47.666;9.160;2022-10-16T18:53:27;14.30;99.90
12771;DHT22;6449;47.666;9.160;2022-10-16T18:58:25;14.20;99.90
12771;DHT22;6449;47.666;9.160;2022-10-16T19:03:18;14.20;99.90
12771;DHT22;6449;47.666;9.160;2022-10-16T19:08:11;14.20;99.90
12771;DHT22;6449;47.666;9.160;2022-10-16T19:13:08;14.10;99.90
12771;DHT22;6449;47.666;9.160;2022-10-16T19:18:02;13.90;99.90
12771;DHT22;6449;47.666;9.160;2022-10-16T19:22:55;14.00;99.90
12771;DHT22;6449;47.666;9.160;2022-10-16T19:27:50;14.00;99.90
12771;DHT22;6449;47.666;9.160;2022-10-16T19:32:45;13.80;99.90
12771;DHT22;6449;47.666;9.160;2022-10-16T19:42:34;13.70;99.90
12771;DHT22;6449;47.666;9.160;2022-10-16T19:47:33;13.70;99.90
12771;DHT22;6449;47.666;9.160;2022-10-16T19:52:28;13.80;99.90
12771;DHT22;6449;47.666;9.160;2022-10-16T19:57:22;13.80;99.90
12771;DHT22;6449;47.666;9.160;2022-10-16T20:02:15;13.80;99.90
12771;DHT22;6449;47.666;9.160;2022-10-16T20:07:08;13.80;99.90
12771;DHT22;6449;47.666;9.160;2022-10-16T20:12:04;13.80;99.90
12771;DHT22;6449;47.666;9.160;2022-10-16T20:16:57;13.80;99.90
12771;DHT22;6449;47.666;9.160;2022-10-16T20:21:50;13.70;99.90
12771;DHT22;6449;47.666;9.160;2022-10-16T20:26:44;13.60;99.90
12771;DHT22;6449;47.666;9.160;2022-10-16T20:31:39;13.60;99.90
12771;DHT22;6449;47.666;9.160;2022-10-16T20:36:34;13.50;99.90
12771;DHT22;6449;47.666;9.160;2022-10-16T20:41:28;13.30;99.90
12771;DHT22;6449;47.666;9.160;2022-10-16T20:46:22;13.10;99.90
12771;DHT22;6449;47.666;9.160;2022-10-16T20:51:20;13.20;99.90
12771;DHT22;6449;47.666;9.160;2022-10-16T20:56:16;13.20;99.90
12771;DHT22;6449;47.666;9.160;2022-10-16T21:01:13;13.20;99.90
12771;DHT22;6449;47.666;9.160;2022-10-16T21:06:08;13.20;99.90
12771;DHT22;6449;47.666;9.160;2022-10-16T21:16:32;13.10;99.90
12771;DHT22;6449;47.666;9.160;2022-10-16T21:21:28;13.00;99.90
12771;DHT22;6449;47.666;9.160;2022-10-16T21:26:23;12.90;99.90
12771;DHT22;6449;47.666;9.160;2022-10-16T21:31:19;12.90;99.90
12771;DHT22;6449;47.666;9.160;2022-10-16T21:36:15;13.00;99.90
12771;DHT22;6449;47.666;9.160;2022-10-16T21:41:14;13.00;99.90
12771;DHT22;6449;47.666;9.160;2022-10-16T21:46:10;13.00;99.90
12771;DHT22;6449;47.666;9.160;2022-10-16T21:51:04;13.00;99.90
12771;DHT22;6449;47.666;9.160;2022-10-16T21:55:59;12.90;99.90
12771;DHT22;6449;47.666;9.160;2022-10-16T22:00:52;12.80;99.90
12771;DHT22;6449;47.666;9.160;2022-10-16T22:11:03;12.80;99.90
12771;DHT22;6449;47.666;9.160;2022-10-16T22:15:57;12.80;99.90
12771;DHT22;6449;47.666;9.160;2022-10-16T22:20:50;12.70;99.90
12771;DHT22;6449;47.666;9.160;2022-10-16T22:25:43;12.60;99.90
12771;DHT22;6449;47.666;9.160;2022-10-16T22:30:39;12.70;99.90
12771;DHT22;6449;47.666;9.160;2022-10-16T22:35:35;12.60;99.90
12771;DHT22;6449;47.666;9.160;2022-10-16T22:40:29;12.60;99.90
12771;DHT22;6449;47.666;9.160;2022-10-16T22:45:25;12.40;99.90
12771;DHT22;6449;47.666;9.160;2022-10-16T22:50:19;12.40;99.90
12771;DHT22;6449;47.666;9.160;2022-10-16T23:00:24;12.60;99.90
12771;DHT22;6449;47.666;9.160;2022-10-16T23:05:19;12.50;99.90
12771;DHT22;6449;47.666;9.160;2022-10-16T23:10:12;12.40;99.90
12771;DHT22;6449;47.666;9.160;2022-10-16T23:15:06;12.40;99.90
12771;DHT22;6449;47.666;9.160;2022-10-16T23:20:00;12.40;99.90
12771;DHT22;6449;47.666;9.160;2022-10-16T23:24:54;12.40;99.90
12771;DHT22;6449;47.666;9.160;2022-10-16T23:29:48;12.50;99.90
12771;DHT22;6449;47.666;9.160;2022-10-16T23:34:41;12.50;99.90
12771;DHT22;6449;47.666;9.160;2022-10-16T23:39:37;12.30;99.90
12771;DHT22;6449;47.666;9.160;2022-10-16T23:44:32;12.30;99.90
12771;DHT22;6449;47.666;9.160;2022-10-16T23:49:25;12.20;99.90
12771;DHT22;6449;47.666;9.160;2022-10-16T23:54:19;12.20;99.90
12771;DHT22;6449;47.666;9.160;2022-10-16T23:59:12;12.20;99.90
